Time;durP1;ratioP1;P1;durP2;ratioP2;P2;SDS_P1;SDS_P2;PMS_P1;PMS_P2;Temp;Humidity;BMP_temperature;BMP_pressure;BME280_temperature;BME280_humidity;BME280_pressure;Samples;Min_cycle;Max_cycle;Signal;HPM_P1;HPM_P2
2024/01/14 00:00:58;;;;;;;90.45;34.05;;;0.80;99.90;;;;;;6206049;23;20005;-69
2024/01/14 00:03:24;;;;;;;96.13;35.40;;;0.70;99.90;;;;;;6207245;23;20055;-68
2024/01/14 00:05:49;;;;;;;92.93;33.50;;;0.60;99.90;;;;;;6207974;23;20008;-69
2024/01/14 00:08:15;;;;;;;84.53;32.77;;;0.70;99.90;;;;;;6209166;23;20046;-67
2024/01/14 00:10:40;;;;;;;86.95;30.90;;;0.60;99.90;;;;;;6207314;23;20009;-68
2024/01/14 00:13:06;;;;;;;78.82;31.15;;;0.60;99.90;;;;;;6208899;23;20015;-70
2024/01/14 00:15:32;;;;;;;80.28;30.85;;;0.50;99.90;;;;;;6209096;23;20004;-65
2024/01/14 00:17:57;;;;;;;82.70;30.97;;;0.60;99.90;;;;;;6209376;23;20004;-63
2024/01/14 00:20:23;;;;;;;80.93;29.75;;;0.60;99.90;;;;;;6208134;23;20498;-63
2024/01/14 00:22:48;;;;;;;89.33;32.17;;;0.50;99.90;;;;;;6208820;23;20012;-64
2024/01/14 00:25:14;;;;;;;85.90;31.35;;;0.60;99.90;;;;;;6208703;23;20358;-65
2024/01/14 00:27:40;;;;;;;79.10;31.88;;;0.70;99.90;;;;;;6209285;23;20012;-67
2024/01/14 00:30:06;;;;;;;84.28;32.17;;;0.50;99.90;;;;;;6208711;23;20444;-67
2024/01/14 00:32:32;;;;;;;80.70;32.25;;;0.30;99.90;;;;;;6208697;23;20366;-69
2024/01/14 00:34:58;;;;;;;81.95;32.70;;;0.30;99.90;;;;;;6208303;23;20498;-70
2024/01/14 00:37:24;;;;;;;80.82;31.52;;;0.30;99.90;;;;;;6208908;23;20005;-68
2024/01/14 00:39:50;;;;;;;85.88;33.28;;;0.30;99.90;;;;;;6209259;23;20008;-69
2024/01/14 00:42:16;;;;;;;84.97;30.93;;;0.30;99.90;;;;;;6209164;23;20446;-66
2024/01/14 00:44:42;;;;;;;83.28;32.13;;;0.30;99.90;;;;;;6209102;23;20020;-64
2024/01/14 00:47:08;;;;;;;80.93;30.83;;;0.30;99.90;;;;;;6209770;23;20004;-63
2024/01/14 00:49:33;;;;;;;92.47;32.58;;;0.20;99.90;;;;;;6208572;23;20031;-66
2024/01/14 00:51:59;;;;;;;84.57;32.40;;;0.20;99.90;;;;;;6208729;23;20043;-70
2024/01/14 00:54:25;;;;;;;82.22;31.50;;;0.20;99.90;;;;;;6257353;22;20453;-63
2024/01/14 00:56:50;;;;;;;91.35;32.80;;;0.30;99.90;;;;;;6208021;23;20480;-68
2024/01/14 00:59:16;;;;;;;76.60;31.63;;;0.30;99.90;;;;;;6208711;23;20091;-66
2024/01/14 01:01:42;;;;;;;76.70;32.07;;;0.40;99.90;;;;;;6208454;23;20076;-64
2024/01/14 01:04:07;;;;;;;81.60;31.63;;;0.20;99.90;;;;;;6207962;23;20345;-67
2024/01/14 01:06:33;;;;;;;90.10;32.90;;;0.20;99.90;;;;;;6208313;23;20105;-65
2024/01/14 01:09:00;;;;;;;86.82;31.63;;;0.20;99.90;;;;;;6208470;23;20127;-73
2024/01/14 01:11:25;;;;;;;81.55;31.70;;;0.20;99.90;;;;;;6208553;23;20107;-66
2024/01/14 01:13:51;;;;;;;83.10;31.35;;;0.30;99.90;;;;;;6208378;23;20449;-66
2024/01/14 01:16:17;;;;;;;81.97;30.92;;;0.20;99.90;;;;;;6208560;23;20536;-64
2024/01/14 01:18:43;;;;;;;82.05;32.85;;;0.30;99.90;;;;;;6208352;23;20012;-68
2024/01/14 01:21:08;;;;;;;80.70;30.87;;;0.40;99.90;;;;;;6206307;23;20452;-64
2024/01/14 01:23:34;;;;;;;79.53;30.70;;;0.40;99.90;;;;;;6208013;23;20600;-64
2024/01/14 01:26:00;;;;;;;86.70;32.10;;;0.30;99.90;;;;;;6208212;23;20644;-64
2024/01/14 01:28:25;;;;;;;85.65;29.38;;;0.30;99.90;;;;;;6208354;23;20019;-70
2024/01/14 01:30:51;;;;;;;85.18;30.58;;;0.10;99.90;;;;;;6207709;23;20013;-66
2024/01/14 01:33:17;;;;;;;80.78;28.70;;;0.20;99.90;;;;;;6208124;23;20047;-66
2024/01/14 01:35:42;;;;;;;80.30;29.87;;;0.30;99.90;;;;;;6257106;22;20012;-69
2024/01/14 01:38:08;;;;;;;81.03;29.85;;;0.40;99.90;;;;;;6208457;23;20322;-65
2024/01/14 01:40:34;;;;;;;77.55;29.15;;;0.20;99.90;;;;;;6208085;23;20012;-71
2024/01/14 01:42:59;;;;;;;80.50;29.87;;;0.30;99.90;;;;;;6208091;23;20009;-64
2024/01/14 01:45:25;;;;;;;77.72;30.65;;;0.20;99.90;;;;;;6207510;23;20088;-64
2024/01/14 01:47:51;;;;;;;73.15;25.23;;;0.10;99.90;;;;;;6208210;23;20043;-64
2024/01/14 01:50:17;;;;;;;65.53;23.83;;;0.10;99.90;;;;;;6207653;23;20030;-63
2024/01/14 01:52:44;;;;;;;62.30;24.52;;;0.00;99.90;;;;;;6208218;23;20012;-64
2024/01/14 01:55:10;;;;;;;;;;;0.10;99.90;;;;;;6208423;23;20008;-75
2024/01/14 01:57:37;;;;;;;59.33;24.03;;;0.10;99.90;;;;;;6207753;23;19904;-72
2024/01/14 02:00:03;;;;;;;;;;;0.00;99.90;;;;;;6257655;22;20087;-67
2024/01/14 02:02:28;;;;;;;71.70;24.17;;;-0.10;99.90;;;;;;6207252;23;19900;-70
2024/01/14 02:04:54;;;;;;;70.22;26.65;;;-0.10;99.90;;;;;;6205670;23;20536;-64
2024/01/14 02:07:20;;;;;;;69.85;26.20;;;0.00;99.90;;;;;;6207557;23;20010;-66
2024/01/14 02:09:47;;;;;;;70.35;25.83;;;0.00;99.90;;;;;;6207850;23;20011;-63
2024/01/14 02:12:13;;;;;;;66.85;25.40;;;0.10;99.90;;;;;;6207735;23;20027;-67
2024/01/14 02:14:38;;;;;;;68.28;24.33;;;0.10;99.90;;;;;;6207634;23;20436;-64
2024/01/14 02:17:04;;;;;;;62.10;24.67;;;0.10;99.90;;;;;;6207868;23;20044;-68
2024/01/14 02:19:29;;;;;;;67.45;25.40;;;0.10;99.90;;;;;;6207492;23;20027;-66
2024/01/14 02:22:08;;;;;;;65.40;24.98;;;0.10;99.90;;;;;;6207160;23;20012;-64
2024/01/14 02:24:35;;;;;;;70.75;24.45;;;0.00;99.90;;;;;;6207958;23;20016;-63
2024/01/14 02:27:01;;;;;;;66.35;25.20;;;0.00;99.90;;;;;;6207561;23;20036;-65
2024/01/14 02:29:28;;;;;;;74.33;26.67;;;0.00;99.90;;;;;;6205156;23;20014;-62
2024/01/14 02:31:54;;;;;;;74.85;24.85;;;0.20;99.90;;;;;;6207779;23;20659;-63
2024/01/14 02:34:20;;;;;;;;;;;0.10;99.90;;;;;;6208232;23;20062;-62
2024/01/14 02:36:46;;;;;;;78.85;26.90;;;0.00;99.90;;;;;;6207493;23;19903;-62
2024/01/14 02:39:11;;;;;;;57.67;23.90;;;0.10;99.90;;;;;;6207629;23;20027;-68
2024/01/14 02:41:37;;;;;;;62.33;24.85;;;0.10;99.90;;;;;;6207514;23;20333;-69
2024/01/14 02:44:03;;;;;;;74.25;26.48;;;0.20;99.90;;;;;;6207570;23;20012;-66
2024/01/14 02:46:29;;;;;;;80.47;27.60;;;0.10;99.90;;;;;;6205492;23;20528;-65
2024/01/14 02:48:55;;;;;;;;;;;0.20;99.90;;;;;;6207787;23;20016;-69
2024/01/14 02:51:21;;;;;;;68.80;24.30;;;0.10;99.90;;;;;;6205599;23;20402;-67
2024/01/14 02:53:46;;;;;;;69.07;25.33;;;0.00;99.90;;;;;;6207659;23;20527;-63
2024/01/14 02:56:12;;;;;;;71.32;25.33;;;-0.10;99.90;;;;;;6207761;23;20001;-66
2024/01/14 02:58:38;;;;;;;71.37;25.77;;;-0.10;99.90;;;;;;6207905;23;20032;-66
2024/01/14 03:01:04;;;;;;;71.65;24.85;;;0.10;99.90;;;;;;6207499;23;20643;-63
2024/01/14 03:03:30;;;;;;;74.65;26.38;;;0.20;99.90;;;;;;6207438;23;20040;-73
2024/01/14 03:05:55;;;;;;;66.80;24.05;;;0.30;99.90;;;;;;6207821;23;20613;-62
2024/01/14 03:08:21;;;;;;;67.53;24.33;;;0.30;99.90;;;;;;6207887;23;20008;-63
2024/01/14 03:10:47;;;;;;;73.50;25.15;;;0.10;99.90;;;;;;6207539;23;20274;-62
2024/01/14 03:13:15;;;;;;;70.95;26.08;;;0.10;99.90;;;;;;6207440;23;20004;-68
2024/01/14 03:15:41;;;;;;;72.28;24.85;;;0.10;99.90;;;;;;6207491;23;20372;-69
2024/01/14 03:18:07;;;;;;;70.22;24.10;;;0.10;99.90;;;;;;6205927;23;20449;-63
2024/01/14 03:20:32;;;;;;;78.95;26.40;;;0.10;99.90;;;;;;6207120;23;20011;-63
2024/01/14 03:22:58;;;;;;;73.73;26.70;;;0.20;99.90;;;;;;6205237;23;20009;-62
2024/01/14 03:25:24;;;;;;;74.63;26.67;;;0.00;99.90;;;;;;6207227;23;20027;-65
2024/01/14 03:27:49;;;;;;;71.75;26.40;;;0.00;99.90;;;;;;6207102;23;20803;-66
2024/01/14 03:30:15;;;;;;;75.50;25.88;;;0.00;99.90;;;;;;6207436;23;20044;-63
2024/01/14 03:32:40;;;;;;;79.68;28.20;;;0.00;99.90;;;;;;6207055;23;20471;-63
2024/01/14 03:35:06;;;;;;;72.57;26.40;;;0.00;99.90;;;;;;6207442;23;20005;-70
2024/01/14 03:37:32;;;;;;;84.38;28.80;;;0.10;99.90;;;;;;6207011;23;20080;-64
2024/01/14 03:39:58;;;;;;;69.30;27.23;;;0.20;99.90;;;;;;6207521;23;20000;-64
2024/01/14 03:42:23;;;;;;;74.18;26.92;;;0.20;99.90;;;;;;6208649;23;20135;-65
2024/01/14 03:44:52;;;;;;;77.10;25.67;;;0.20;99.90;;;;;;6208457;23;20017;-66
2024/01/14 03:47:18;;;;;;;78.07;26.02;;;0.00;99.90;;;;;;6208944;23;20008;-66
2024/01/14 03:49:43;;;;;;;64.00;24.38;;;0.10;99.90;;;;;;6208980;23;20013;-64
2024/01/14 03:52:09;;;;;;;81.07;27.70;;;0.00;99.90;;;;;;6209033;23;20004;-62
2024/01/14 03:54:35;;;;;;;76.55;26.63;;;0.00;99.90;;;;;;6208345;23;20228;-65
2024/01/14 03:57:00;;;;;;;72.73;24.73;;;0.00;99.90;;;;;;6208726;23;20005;-62
2024/01/14 03:59:26;;;;;;;85.00;26.53;;;-0.10;99.90;;;;;;6208746;23;20274;-67
2024/01/14 04:01:51;;;;;;;87.20;28.20;;;0.00;99.90;;;;;;6208796;23;20341;-63
2024/01/14 04:04:17;;;;;;;80.83;26.70;;;0.00;99.90;;;;;;6208879;23;20008;-63
2024/01/14 04:06:43;;;;;;;77.72;28.75;;;-0.10;99.90;;;;;;6209248;23;20773;-65
2024/01/14 04:09:09;;;;;;;73.28;27.75;;;-0.10;99.90;;;;;;6208927;23;20008;-64
2024/01/14 04:11:35;;;;;;;78.68;25.98;;;0.00;99.90;;;;;;6208570;23;20032;-62
2024/01/14 04:14:01;;;;;;;75.68;27.65;;;-0.10;99.90;;;;;;6208913;23;20013;-66
2024/01/14 04:16:34;;;;;;;67.23;24.73;;;0.10;99.90;;;;;;6208998;23;20076;-67
2024/01/14 04:19:00;;;;;;;66.57;24.48;;;0.00;99.90;;;;;;6208860;23;20236;-62
2024/01/14 04:21:26;;;;;;;74.30;25.60;;;0.00;99.90;;;;;;6208803;23;20078;-62
2024/01/14 04:23:51;;;;;;;75.73;26.30;;;0.00;99.90;;;;;;6208148;23;20244;-62
2024/01/14 04:26:21;;;;;;;73.87;25.97;;;0.00;99.90;;;;;;6208886;23;20624;-66
2024/01/14 04:28:47;;;;;;;64.25;24.48;;;0.10;99.90;;;;;;6207131;23;20232;-66
2024/01/14 04:31:13;;;;;;;83.15;27.35;;;0.10;99.90;;;;;;6208962;23;20139;-68
2024/01/14 04:33:38;;;;;;;67.93;24.35;;;0.10;99.90;;;;;;6208557;23;20036;-69
2024/01/14 04:36:04;;;;;;;82.97;27.48;;;0.00;99.90;;;;;;6208851;23;20004;-63
2024/01/14 04:38:30;;;;;;;82.97;26.70;;;-0.10;99.90;;;;;;6208036;23;20461;-63
2024/01/14 04:40:55;;;;;;;85.72;28.00;;;-0.10;99.90;;;;;;6207879;23;20004;-63
2024/01/14 04:43:21;;;;;;;79.10;26.90;;;-0.10;99.90;;;;;;6208226;23;20017;-65
2024/01/14 04:45:47;;;;;;;77.15;26.88;;;-0.10;99.90;;;;;;6209164;23;20216;-63
2024/01/14 04:48:13;;;;;;;78.03;27.63;;;-0.10;99.90;;;;;;6208803;23;20441;-66
2024/01/14 04:50:41;;;;;;;75.50;26.20;;;-0.10;99.90;;;;;;6208329;23;20079;-64
2024/01/14 04:53:07;;;;;;;85.13;27.75;;;0.00;99.90;;;;;;6208373;23;20011;-63
2024/01/14 04:55:33;;;;;;;78.88;28.27;;;0.00;99.90;;;;;;6208216;23;20334;-67
2024/01/14 04:57:59;;;;;;;78.88;26.73;;;0.10;99.90;;;;;;6207559;23;20004;-62
2024/01/14 05:00:25;;;;;;;80.47;27.00;;;0.10;99.90;;;;;;6208340;23;20008;-66
2024/01/14 05:02:51;;;;;;;76.35;27.60;;;0.10;99.90;;;;;;6208530;23;20029;-63
2024/01/14 05:05:16;;;;;;;78.75;26.48;;;0.00;99.90;;;;;;6208704;23;20013;-62
2024/01/14 05:07:42;;;;;;;84.83;27.70;;;0.00;99.90;;;;;;6208851;23;20341;-67
2024/01/14 05:10:08;;;;;;;69.47;24.83;;;0.00;99.90;;;;;;6232360;23;20760;-62
2024/01/14 05:12:34;;;;;;;74.22;25.92;;;0.10;99.90;;;;;;6209127;23;20215;-63
2024/01/14 05:15:00;;;;;;;69.60;23.80;;;0.10;99.90;;;;;;6208899;23;20378;-62
2024/01/14 05:17:26;;;;;;;68.38;26.92;;;0.00;99.90;;;;;;6208992;23;20000;-73
2024/01/14 05:19:53;;;;;;;82.63;27.17;;;0.00;99.90;;;;;;6208888;23;20015;-66
2024/01/14 05:22:18;;;;;;;77.72;27.88;;;0.10;99.90;;;;;;6209115;23;20099;-72
2024/01/14 05:24:45;;;;;;;77.10;26.80;;;0.20;99.90;;;;;;6207136;23;20469;-67
2024/01/14 05:27:11;;;;;;;75.97;27.98;;;0.30;99.90;;;;;;6208794;23;20000;-66
2024/01/14 05:29:40;;;;;;;79.55;25.33;;;0.30;99.90;;;;;;6208432;23;20024;-65
2024/01/14 05:32:08;;;;;;;72.90;25.02;;;0.30;99.90;;;;;;6208639;23;19997;-63
2024/01/14 05:34:34;;;;;;;74.10;25.42;;;0.40;99.90;;;;;;6206950;23;20087;-66
2024/01/14 05:37:01;;;;;;;74.78;24.85;;;0.40;99.90;;;;;;6208667;23;20422;-63
2024/01/14 05:39:27;;;;;;;78.70;25.52;;;0.40;99.90;;;;;;6207323;23;20476;-63
2024/01/14 05:41:52;;;;;;;75.40;25.85;;;0.40;99.90;;;;;;6208190;23;20004;-63
2024/01/14 05:44:18;;;;;;;74.10;24.70;;;0.40;99.90;;;;;;6208794;23;20548;-71
2024/01/14 05:46:43;;;;;;;66.15;23.90;;;0.40;99.90;;;;;;6208591;23;20005;-63
2024/01/14 05:49:10;;;;;;;79.28;26.10;;;0.40;99.90;;;;;;6206565;23;20083;-68
2024/01/14 05:51:36;;;;;;;71.15;24.95;;;0.40;99.90;;;;;;6208331;23;20004;-63
2024/01/14 05:54:03;;;;;;;69.10;25.80;;;0.30;99.90;;;;;;6206574;23;20016;-62
2024/01/14 05:56:29;;;;;;;64.65;23.95;;;0.30;99.90;;;;;;6204613;23;20051;-67
2024/01/14 05:58:56;;;;;;;77.60;27.60;;;0.20;99.90;;;;;;6205996;23;20388;-62
2024/01/14 06:01:22;;;;;;;71.18;23.88;;;0.10;99.90;;;;;;6207022;23;20001;-63
2024/01/14 06:03:47;;;;;;;65.47;24.50;;;0.00;99.90;;;;;;6206785;23;20043;-63
2024/01/14 06:06:13;;;;;;;60.33;21.95;;;0.00;99.90;;;;;;6206916;23;20005;-63
2024/01/14 06:08:40;;;;;;;74.40;25.77;;;0.00;99.90;;;;;;6206600;23;20058;-64
2024/01/14 06:11:06;;;;;;;66.85;24.73;;;0.00;99.90;;;;;;6207134;23;20001;-65
2024/01/14 06:13:32;;;;;;;65.90;24.10;;;0.00;99.90;;;;;;6206999;23;20032;-68
2024/01/14 06:15:58;;;;;;;69.05;24.65;;;0.20;99.90;;;;;;6206648;23;20001;-63
2024/01/14 06:18:23;;;;;;;71.25;25.27;;;0.00;99.90;;;;;;6206631;23;20012;-63
2024/01/14 06:20:49;;;;;;;74.63;23.88;;;0.00;99.90;;;;;;6206301;22;20430;-64
2024/01/14 06:23:15;;;;;;;68.87;23.17;;;0.00;99.90;;;;;;6207188;23;20008;-67
2024/01/14 06:25:40;;;;;;;65.93;23.10;;;-0.10;99.90;;;;;;6206235;23;20275;-69
2024/01/14 06:28:06;;;;;;;62.25;23.45;;;0.00;99.90;;;;;;6207200;23;20307;-65
2024/01/14 06:30:33;;;;;;;64.88;22.55;;;0.00;99.90;;;;;;6207306;23;20486;-65
2024/01/14 06:32:58;;;;;;;64.65;22.83;;;0.00;99.90;;;;;;6230253;23;20004;-66
2024/01/14 06:35:24;;;;;;;62.08;22.77;;;0.10;99.90;;;;;;6207043;23;20353;-66
2024/01/14 06:37:50;;;;;;;65.75;23.50;;;0.10;99.90;;;;;;6206525;23;20004;-64
2024/01/14 06:40:17;;;;;;;64.93;22.23;;;0.10;99.90;;;;;;6207232;23;20012;-68
2024/01/14 06:42:42;;;;;;;64.13;22.85;;;0.20;99.90;;;;;;6207047;23;20011;-72
2024/01/14 06:45:09;;;;;;;60.88;23.63;;;0.30;99.90;;;;;;6206966;23;20096;-63
2024/01/14 06:47:35;;;;;;;60.75;21.83;;;0.20;99.90;;;;;;6207036;23;20010;-64
2024/01/14 06:50:00;;;;;;;60.88;21.05;;;0.10;99.90;;;;;;6206503;23;20004;-63
2024/01/14 06:52:26;;;;;;;65.57;23.10;;;0.00;99.90;;;;;;6206706;23;20001;-66
2024/01/14 06:54:52;;;;;;;57.55;21.83;;;0.10;99.90;;;;;;6207318;23;20004;-70
2024/01/14 06:57:18;;;;;;;65.53;21.60;;;0.20;99.90;;;;;;6206677;23;20456;-64
2024/01/14 06:59:44;;;;;;;66.65;23.48;;;0.00;99.90;;;;;;6206835;23;20010;-63
2024/01/14 07:02:11;;;;;;;;;;;0.00;99.90;;;;;;6207501;23;20012;-67
2024/01/14 07:04:36;;;;;;;66.13;23.52;;;0.00;99.90;;;;;;6206355;23;19965;-68
2024/01/14 07:07:02;;;;;;;73.47;22.53;;;0.00;99.90;;;;;;6205999;23;20075;-67
2024/01/14 07:09:28;;;;;;;66.07;24.17;;;0.00;99.90;;;;;;6206861;23;20239;-67
2024/01/14 07:11:53;;;;;;;64.43;24.77;;;0.00;99.90;;;;;;6205920;23;20512;-73
2024/01/14 07:14:19;;;;;;;69.33;24.60;;;0.00;99.90;;;;;;6206769;23;20232;-72
2024/01/14 07:16:44;;;;;;;77.95;27.73;;;0.00;99.90;;;;;;6208934;23;20005;-72
2024/01/14 07:19:10;;;;;;;73.40;26.67;;;0.10;99.90;;;;;;6208938;23;20050;-69
2024/01/14 07:21:35;;;;;;;72.17;25.87;;;0.10;99.90;;;;;;6208477;23;19996;-73
2024/01/14 07:24:01;;;;;;;61.83;24.57;;;0.20;99.90;;;;;;6207884;23;20281;-64
2024/01/14 07:26:27;;;;;;;66.15;24.52;;;0.20;99.90;;;;;;6208558;23;20001;-66
2024/01/14 07:28:52;;;;;;;67.38;24.25;;;0.30;99.90;;;;;;6206467;23;20095;-65
2024/01/14 07:31:21;;;;;;;60.50;22.88;;;0.30;99.90;;;;;;6208643;23;20015;-70
2024/01/14 07:33:50;;;;;;;55.63;22.08;;;0.30;99.90;;;;;;6208248;23;20476;-73
2024/01/14 07:36:16;;;;;;;54.40;22.35;;;0.30;99.90;;;;;;6208859;23;20016;-68
2024/01/14 07:38:42;;;;;;;58.05;22.38;;;0.30;99.90;;;;;;6208566;23;20004;-66
2024/01/14 07:41:12;;;;;;;70.43;24.10;;;0.30;99.90;;;;;;6208201;23;20268;-65
2024/01/14 07:43:38;;;;;;;65.90;24.50;;;0.30;99.90;;;;;;6208362;23;20012;-64
2024/01/14 07:46:06;;;;;;;61.72;22.98;;;0.30;99.90;;;;;;6206612;23;20011;-68
2024/01/14 07:48:32;;;;;;;68.18;22.33;;;0.30;99.90;;;;;;6207092;23;20004;-67
2024/01/14 07:50:57;;;;;;;69.10;25.70;;;0.10;99.90;;;;;;6207679;23;20005;-71
2024/01/14 07:53:23;;;;;;;70.57;23.27;;;0.10;99.90;;;;;;6207284;23;20032;-72
2024/01/14 07:55:49;;;;;;;69.22;24.85;;;0.10;99.90;;;;;;6207304;23;20004;-66
2024/01/14 07:58:15;;;;;;;70.75;25.55;;;0.10;99.90;;;;;;6208646;23;20040;-63
2024/01/14 08:00:42;;;;;;;62.85;23.08;;;0.10;99.90;;;;;;6208527;23;20004;-69
2024/01/14 08:03:07;;;;;;;70.00;23.73;;;0.20;99.90;;;;;;6208226;23;20008;-67
2024/01/14 08:05:35;;;;;;;65.53;22.00;;;0.10;99.90;;;;;;6207405;23;20063;-63
2024/01/14 08:08:01;;;;;;;66.97;22.38;;;0.20;99.90;;;;;;6207332;23;20312;-64
2024/01/14 08:10:27;;;;;;;65.18;24.25;;;0.30;99.90;;;;;;6208402;23;20008;-63
2024/01/14 08:12:53;;;;;;;67.85;23.48;;;0.40;99.90;;;;;;6208154;23;20005;-64
2024/01/14 08:15:18;;;;;;;66.68;23.08;;;0.50;99.90;;;;;;6205833;23;20468;-68
2024/01/14 08:17:44;;;;;;;60.05;22.63;;;0.30;99.90;;;;;;6208040;23;20016;-64
2024/01/14 08:20:11;;;;;;;63.50;21.15;;;0.40;99.90;;;;;;6208227;23;20001;-66
2024/01/14 08:22:39;;;;;;;62.58;21.90;;;0.50;99.90;;;;;;6208172;23;20008;-65
2024/01/14 08:25:07;;;;;;;57.40;22.42;;;0.50;99.90;;;;;;6207294;23;20017;-68
2024/01/14 08:27:33;;;;;;;54.88;20.05;;;0.50;99.90;;;;;;6255103;22;20005;-66
2024/01/14 08:29:59;;;;;;;63.30;21.58;;;0.60;99.90;;;;;;6201228;23;20016;-65
2024/01/14 08:32:25;;;;;;;59.25;22.95;;;0.60;99.90;;;;;;6206930;23;20062;-67
2024/01/14 08:34:50;;;;;;;60.83;22.08;;;0.60;99.90;;;;;;6207874;23;20441;-68
2024/01/14 08:37:16;;;;;;;57.97;20.30;;;0.60;99.90;;;;;;6208027;23;20004;-64
2024/01/14 08:39:41;;;;;;;55.90;20.63;;;0.50;99.90;;;;;;6207473;23;20235;-69
2024/01/14 08:42:07;;;;;;;55.53;21.10;;;0.80;99.90;;;;;;6207910;23;20338;-66
2024/01/14 08:44:33;;;;;;;51.20;20.73;;;0.80;99.90;;;;;;6207140;23;20064;-67
2024/01/14 08:47:00;;;;;;;62.30;21.23;;;1.00;99.90;;;;;;6207695;23;20314;-68
2024/01/14 08:49:29;;;;;;;54.50;19.67;;;0.90;99.90;;;;;;6207035;23;20090;-65
2024/01/14 08:51:58;;;;;;;60.25;21.95;;;1.00;99.90;;;;;;6207931;23;20457;-64
2024/01/14 08:54:24;;;;;;;55.13;21.52;;;1.00;99.90;;;;;;6207200;23;20055;-72
2024/01/14 08:56:49;;;;;;;55.53;20.38;;;1.20;99.90;;;;;;6207555;23;20000;-72
2024/01/14 08:59:15;;;;;;;51.73;21.73;;;1.30;99.90;;;;;;6206874;23;20010;-65
2024/01/14 09:01:41;;;;;;;58.75;20.77;;;1.20;99.90;;;;;;6207056;23;20619;-66
2024/01/14 09:04:06;;;;;;;50.83;19.23;;;1.40;99.90;;;;;;6208996;23;20465;-70
2024/01/14 09:06:32;;;;;;;56.57;21.60;;;1.30;99.90;;;;;;6207747;23;20231;-63
2024/01/14 09:08:58;;;;;;;55.67;19.70;;;1.30;99.90;;;;;;6207681;23;20239;-68
2024/01/14 09:11:24;;;;;;;52.60;20.38;;;1.10;99.90;;;;;;6204899;23;20294;-65
2024/01/14 09:13:50;;;;;;;47.85;19.02;;;1.20;99.90;;;;;;6206760;23;20016;-68
2024/01/14 09:16:16;;;;;;;52.50;19.17;;;1.20;99.90;;;;;;6207246;23;20000;-64
2024/01/14 09:18:41;;;;;;;54.63;19.85;;;1.00;99.90;;;;;;6207780;23;20009;-66
2024/01/14 09:21:07;;;;;;;46.23;18.53;;;1.20;99.90;;;;;;6207208;23;20100;-70
2024/01/14 09:23:33;;;;;;;54.63;20.63;;;1.10;99.90;;;;;;6207065;23;20075;-71
2024/01/14 09:25:59;;;;;;;58.13;20.60;;;1.30;99.90;;;;;;6204179;23;20043;-68
2024/01/14 09:28:25;;;;;;;56.08;22.10;;;1.20;99.90;;;;;;6205522;23;20004;-74
2024/01/14 09:30:50;;;;;;;65.15;23.25;;;1.10;99.90;;;;;;6206314;23;20055;-69
2024/01/14 09:33:17;;;;;;;61.28;23.38;;;1.10;99.90;;;;;;6206439;23;20426;-71
2024/01/14 09:35:43;;;;;;;58.58;21.48;;;1.10;99.90;;;;;;6206057;23;20008;-71
2024/01/14 09:38:09;;;;;;;58.88;22.45;;;1.10;99.90;;;;;;6205264;23;20368;-71
2024/01/14 09:40:37;;;;;;;66.40;23.40;;;1.20;99.90;;;;;;6206559;23;20475;-62
2024/01/14 09:43:06;;;;;;;62.72;23.80;;;1.40;99.90;;;;;;6207513;23;20005;-61
2024/01/14 09:45:35;;;;;;;67.13;24.48;;;1.50;99.90;;;;;;6230289;23;20012;-62
2024/01/14 09:48:02;;;;;;;60.53;22.65;;;;;;;;;;6207549;23;20028;-63
2024/01/14 09:50:31;;;;;;;;;;;1.60;99.90;;;;;;6206293;23;20036;-61
2024/01/14 09:52:58;;;;;;;56.85;21.15;;;1.80;99.90;;;;;;6206258;23;19990;-71
2024/01/14 09:55:27;;;;;;;62.67;21.33;;;1.90;99.90;;;;;;6205292;23;20035;-66
2024/01/14 09:57:53;;;;;;;55.25;21.05;;;1.80;99.90;;;;;;6207023;23;20026;-68
2024/01/14 10:00:22;;;;;;;56.35;22.05;;;1.80;99.90;;;;;;6207534;23;20004;-73
2024/01/14 10:02:48;;;;;;;54.13;21.00;;;2.00;99.90;;;;;;6232554;23;20040;-67
2024/01/14 10:05:15;;;;;;;57.60;20.70;;;2.00;99.90;;;;;;6208951;23;20021;-67
2024/01/14 10:07:43;;;;;;;51.80;19.30;;;2.00;99.90;;;;;;6208805;23;20005;-66
2024/01/14 10:10:09;;;;;;;52.63;20.40;;;2.00;99.90;;;;;;6208615;23;20066;-62
2024/01/14 10:12:35;;;;;;;54.72;20.92;;;2.20;99.90;;;;;;6208524;23;20017;-70
2024/01/14 10:15:01;;;;;;;51.08;21.05;;;2.20;99.90;;;;;;6207696;23;20004;-63
2024/01/14 10:17:29;;;;;;;53.08;21.35;;;1.90;99.90;;;;;;6208005;23;20059;-62
2024/01/14 10:19:57;;;;;;;57.33;21.67;;;2.00;99.90;;;;;;6208204;23;20012;-67
2024/01/14 10:22:25;;;;;;;49.83;20.13;;;2.20;99.90;;;;;;6208127;23;20036;-62
2024/01/14 10:24:51;;;;;;;49.35;21.63;;;2.40;99.90;;;;;;6206885;23;20016;-62
2024/01/14 10:27:18;;;;;;;54.03;19.92;;;2.50;99.90;;;;;;6208324;23;20027;-64
2024/01/14 10:29:44;;;;;;;52.47;21.23;;;2.50;99.90;;;;;;6205516;23;20043;-66
2024/01/14 10:32:10;;;;;;;58.58;22.30;;;2.40;99.90;;;;;;6206768;23;20064;-69
2024/01/14 10:34:36;;;;;;;45.07;19.70;;;2.50;99.90;;;;;;6206811;23;20004;-65
2024/01/14 10:37:03;;;;;;;49.10;19.95;;;2.50;99.90;;;;;;6205769;23;20267;-66
2024/01/14 10:39:30;;;;;;;48.85;19.48;;;2.70;99.90;;;;;;6207148;23;20408;-64
2024/01/14 10:41:56;;;;;;;;;;;2.90;99.90;;;;;;6207555;23;20030;-65
2024/01/14 10:44:21;;;;;;;49.45;19.65;;;3.10;99.90;;;;;;6206562;23;20399;-64
2024/01/14 10:46:51;;;;;;;54.10;22.03;;;3.20;99.90;;;;;;6206238;23;20011;-64
2024/01/14 10:49:20;;;;;;;49.00;19.05;;;3.30;99.90;;;;;;6206589;23;20009;-68
2024/01/14 10:51:54;;;;;;;48.72;18.83;;;3.40;99.90;;;;;;6205578;23;20058;-65
2024/01/14 10:54:39;;;;;;;55.50;21.25;;;3.30;99.90;;;;;;6229768;23;20012;-72
2024/01/14 10:57:08;;;;;;;53.20;20.90;;;3.20;99.90;;;;;;6205631;23;20095;-65
2024/01/14 10:59:36;;;;;;;54.28;21.77;;;3.10;99.90;;;;;;6206738;23;20009;-63
2024/01/14 11:02:13;;;;;;;55.95;20.80;;;3.20;99.90;;;;;;6206536;23;20008;-66
2024/01/14 11:04:38;;;;;;;52.55;21.42;;;3.00;99.90;;;;;;6206194;23;20106;-64
2024/01/14 11:07:05;;;;;;;50.92;21.13;;;3.20;99.90;;;;;;6205813;23;20008;-68
2024/01/14 11:09:31;;;;;;;58.22;22.15;;;2.90;99.90;;;;;;6206549;23;20139;-70
2024/01/14 11:12:05;;;;;;;48.10;20.87;;;2.80;99.90;;;;;;6206578;23;20028;-63
2024/01/14 11:14:45;;;;;;;50.45;19.42;;;3.00;99.90;;;;;;6206197;23;20232;-70
2024/01/14 11:17:17;;;;;;;55.35;21.48;;;2.80;99.90;;;;;;6206572;23;20007;-65
2024/01/14 11:19:44;;;;;;;55.45;20.25;;;3.00;99.90;;;;;;6206590;23;20028;-63
2024/01/14 11:22:22;;;;;;;54.55;19.98;;;3.00;99.90;;;;;;6206114;23;20011;-63
2024/01/14 11:24:48;;;;;;;50.55;19.75;;;3.10;99.90;;;;;;6206881;23;20043;-67
2024/01/14 11:27:14;;;;;;;54.45;22.35;;;3.20;99.90;;;;;;6204582;23;20009;-66
2024/01/14 11:29:40;;;;;;;47.00;19.60;;;3.30;99.90;;;;;;6205821;23;20017;-62
2024/01/14 11:32:14;;;;;;;48.80;20.95;;;3.40;99.90;;;;;;6206383;23;20001;-63
2024/01/14 11:34:46;;;;;;;53.92;19.02;;;3.60;99.90;;;;;;6204897;23;20047;-63
2024/01/14 11:37:30;;;;;;;47.90;19.45;;;3.80;99.90;;;;;;6206436;23;20012;-67
2024/01/14 11:40:16;;;;;;;51.85;20.63;;;3.80;99.90;;;;;;6204760;23;20012;-64
2024/01/14 11:42:50;;;;;;;46.88;19.30;;;3.80;99.90;;;;;;6205928;23;20075;-66
2024/01/14 11:45:25;;;;;;;46.53;19.40;;;3.90;99.90;;;;;;6206600;23;20012;-65
2024/01/14 11:47:55;;;;;;;48.90;20.65;;;3.90;99.90;;;;;;6206012;23;20008;-67
2024/01/14 11:50:21;;;;;;;54.33;19.48;;;3.60;99.90;;;;;;6206771;23;20005;-65
2024/01/14 11:52:49;;;;;;;50.10;19.77;;;3.60;99.90;;;;;;6206484;23;20012;-66
2024/01/14 11:55:19;;;;;;;50.70;20.00;;;3.60;99.90;;;;;;6204906;23;20085;-64
2024/01/14 11:57:45;;;;;;;54.55;20.15;;;3.40;99.90;;;;;;6230238;23;20119;-66
2024/01/14 12:00:11;;;;;;;54.75;22.17;;;3.50;99.90;;;;;;6206063;23;20000;-68
2024/01/14 12:02:37;;;;;;;;;;;3.40;99.90;;;;;;6231663;23;20013;-64
2024/01/14 12:05:19;;;;;;;48.60;20.20;;;3.40;99.90;;;;;;6206959;23;19912;-66
2024/01/14 12:07:45;;;;;;;46.95;19.88;;;3.60;99.90;;;;;;6206665;23;20013;-64
2024/01/14 12:10:19;;;;;;;56.53;20.25;;;3.50;99.90;;;;;;6205957;23;20015;-70
2024/01/14 12:12:45;;;;;;;58.65;21.83;;;3.70;99.90;;;;;;6205092;23;20008;-63
2024/01/14 12:15:11;;;;;;;52.15;21.15;;;3.90;99.90;;;;;;6255474;22;20382;-75
2024/01/14 12:17:37;;;;;;;51.88;20.65;;;4.00;99.90;;;;;;6207156;23;20005;-69
2024/01/14 12:20:04;;;;;;;54.27;20.87;;;4.00;99.90;;;;;;6207748;23;20503;-69
2024/01/14 12:22:30;;;;;;;52.00;22.15;;;3.90;99.90;;;;;;6208217;23;20341;-66
2024/01/14 12:24:56;;;;;;;49.42;20.40;;;3.90;99.90;;;;;;6207690;23;20012;-65
2024/01/14 12:27:22;;;;;;;45.97;19.73;;;3.90;99.90;;;;;;6207802;23;20012;-68
2024/01/14 12:29:47;;;;;;;50.00;20.20;;;3.80;99.90;;;;;;6205629;23;20013;-64
2024/01/14 12:32:13;;;;;;;49.63;20.83;;;3.80;99.90;;;;;;6206276;23;20228;-64
2024/01/14 12:34:43;;;;;;;47.60;20.20;;;3.80;99.90;;;;;;6205846;23;20087;-63